Семей

Карта отелей и гостиниц, располагающихся рядом с аэропортом Семей :

Семей Восточно Казахстанская область 50° 21' 6.48" N, 80° 14' 4.4988" E
Код аэродрома ИКАО: 
UASS
Код аэродрома RU: 
УАСС
Координаты: 
N50.35180° E080.23458°
Превышение над уровнем моря : 
213
Основная полоса: 
08L/26R
Курс магнитный: 
077/257
Длина основной ВПП: 
3100
Ширина основной ВПП: 
44
Покрытие основной ВПП: 
Твёрдое (железобетон)
Освещение ВПП: 
Постоянное
Тип: 
Аэродром
Класс аэродрома: 
Международный
Принадлежность: 
ГА
Статус: 
Действующий
Сайт: 
http://www.semeyairport.kz/
Страна: 
Казахстан
Регион: 
Восточно Казахстанская область
Дополнительная информация: 
Эксплуатант: АО «Семейавиа». Совместного базирования.
Погода: 

Авиационная погода в аэропорту Семей

Регион: 
Погода METAR: 
UASS 201130Z 07003MPS CAVOK 20/03 Q1017 R26/0///60 NOSIG RMK QFE744/0992
Время наблюдения: 
2020-09-20T11:30:00Z
Температура C: 
20.0
Точка росы: 
3.0
Направление ветра: 
70
Скорость ветра (узлы): 
6
Метеорологическая видимость: 
6.21
Условия полета: 
VFR
Аэропорт подробнее: 

Найти трансфер

С помощью этой формы Вы можете найти трансфер из аэропорта Семей в город, аэропорт или вокзал:

Карта места

Javascript is required to view this map.

Погода в аэропортах:

Авиационная погода в Куопио

Регион: 
Погода METAR: 
EFKU 201420Z AUTO 23013KT 9999 -RA NSC 11/06 Q1007
Время наблюдения: 
2020-09-20T14:20:00Z
Температура C: 
11.0
Точка росы: 
6.0
Направление ветра: 
230
Скорость ветра (узлы): 
13
Метеорологическая видимость: 
6.21
Явления погоды: 
-RA
Условия полета: 
VFR

Авиационная погода в Стамбуле

Регион: 
Погода METAR: 
LTFM 201420Z 02020KT 9999 -SHRA BKN029 20/15 Q1017 NOSIG RMK RWY17L 02019KT RWY34L 02018KT RWY16R 02016KT RWY36 02019KT RWY18 03017KT
Время наблюдения: 
2020-09-20T14:20:00Z
Температура C: 
20.0
Точка росы: 
15.0
Направление ветра: 
20
Скорость ветра (узлы): 
20
Метеорологическая видимость: 
6.21
Явления погоды: 
-SHRA
Условия полета: 
MVFR

Авиационная погода в Якутске

Регион: 
Погода METAR: 
UEEE 201430Z 31002MPS 5000 FU NSC 02/M04 Q1017 R23L/09//60 NOSIG RMK QFE754
Время наблюдения: 
2020-09-20T14:30:00Z
Температура C: 
2.0
Точка росы: 
-4.0
Направление ветра: 
310
Скорость ветра (узлы): 
4
Метеорологическая видимость: 
3.11
Явления погоды: 
FU
Условия полета: 
MVFR
Аэропорт подробнее: 

Авиационная погода в Орске

Регион: 
Погода METAR: 
UWOR 201500Z 24005MPS 9999 -SHRA BKN030CB 06/04 Q1004 R25/290155 NOSIG RMK QFE730/0973
Время наблюдения: 
2020-09-20T15:00:00Z
Температура C: 
6.0
Точка росы: 
4.0
Направление ветра: 
240
Скорость ветра (узлы): 
10
Метеорологическая видимость: 
6.21
Явления погоды: 
-SHRA
Условия полета: 
MVFR
Аэропорт подробнее: